createdAt,value
2022-11-03T00:00:51.983Z,100.00
2022-11-03T00:01:53.862Z,100.00
2022-11-03T00:02:55.619Z,100.00
2022-11-03T00:03:57.303Z,100.00
2022-11-03T00:05:19.060Z,100.00
2022-11-03T00:06:20.708Z,100.00
2022-11-03T00:07:22.786Z,100.00
2022-11-03T00:08:24.452Z,100.00
2022-11-03T00:09:27.676Z,100.00
2022-11-03T00:10:30.898Z,100.00
2022-11-03T00:11:34.386Z,100.00
2022-11-03T00:12:36.115Z,100.00
2022-11-03T00:13:39.896Z,100.00
2022-11-03T00:14:41.723Z,100.00
2022-11-03T00:15:50.156Z,100.00
2022-11-03T00:16:52.526Z,100.00
2022-11-03T00:17:54.266Z,100.00
2022-11-03T00:18:56.053Z,100.00
2022-11-03T00:19:57.681Z,100.00
2022-11-03T00:21:02.685Z,100.00
2022-11-03T00:22:04.298Z,100.00
2022-11-03T00:23:06.073Z,100.00
2022-11-03T00:24:09.224Z,100.00
2022-11-03T00:25:11.123Z,100.00
2022-11-03T00:26:13.126Z,100.00
2022-11-03T00:27:16.405Z,100.00
2022-11-03T00:28:18.191Z,100.00
2022-11-03T00:29:19.834Z,100.00
2022-11-03T00:30:21.861Z,100.00
2022-11-03T00:31:27.291Z,100.00
2022-11-03T00:32:30.578Z,100.00
2022-11-03T00:33:33.668Z,100.00
2022-11-03T00:34:36.162Z,100.00
2022-11-03T00:35:37.729Z,100.00
2022-11-03T00:36:42.896Z,100.00
2022-11-03T00:37:44.834Z,100.00
2022-11-03T00:38:47.672Z,100.00
2022-11-03T00:39:53.566Z,100.00
2022-11-03T00:40:56.257Z,100.00
2022-11-03T00:41:57.870Z,100.00
2022-11-03T00:42:59.825Z,100.00
2022-11-03T00:44:03.189Z,100.00
2022-11-03T00:45:06.937Z,100.00
2022-11-03T00:46:09.889Z,100.00
2022-11-03T00:47:11.381Z,100.00
2022-11-03T00:48:31.789Z,100.00
2022-11-03T00:49:34.065Z,100.00
2022-11-03T00:50:35.625Z,100.00
2022-11-03T00:51:37.550Z,100.00
2022-11-03T00:52:40.179Z,100.00
2022-11-03T00:53:46.205Z,100.00
2022-11-03T00:54:52.748Z,100.00
2022-11-03T00:55:58.017Z,100.00
2022-11-03T00:56:59.674Z,100.00
2022-11-03T00:58:02.725Z,100.00
2022-11-03T00:59:06.086Z,100.00
2022-11-03T01:00:08.751Z,100.00
2022-11-03T01:01:12.840Z,100.00
2022-11-03T01:02:16.393Z,100.00
2022-11-03T01:03:18.294Z,100.00
2022-11-03T01:04:38.412Z,100.00
2022-11-03T01:06:02.819Z,100.00
2022-11-03T01:07:08.047Z,100.00
2022-11-03T01:08:09.819Z,100.00
2022-11-03T01:09:12.178Z,100.00
2022-11-03T01:10:13.830Z,100.00
2022-11-03T01:11:37.159Z,100.00
2022-11-03T01:12:39.622Z,100.00
2022-11-03T01:13:41.255Z,100.00
2022-11-03T01:14:51.933Z,100.00
2022-11-03T01:15:57.740Z,100.00
2022-11-03T01:17:00.059Z,100.00
2022-11-03T01:18:04.661Z,100.00
2022-11-03T01:19:07.262Z,100.00
2022-11-03T01:20:09.317Z,100.00
2022-11-03T01:21:11.232Z,100.00
2022-11-03T01:22:13.572Z,100.00
2022-11-03T01:23:15.320Z,100.00
2022-11-03T01:24:19.864Z,100.00
2022-11-03T01:25:22.157Z,100.00
2022-11-03T01:26:23.772Z,100.00
2022-11-03T01:27:26.155Z,100.00
2022-11-03T01:28:27.860Z,100.00
2022-11-03T01:29:29.578Z,100.00
2022-11-03T01:30:31.348Z,100.00
2022-11-03T01:31:33.748Z,100.00
2022-11-03T01:32:35.451Z,100.00
2022-11-03T01:33:37.769Z,100.00
2022-11-03T01:34:39.571Z,100.00
2022-11-03T01:35:41.618Z,100.00
2022-11-03T01:36:43.979Z,100.00
2022-11-03T01:37:47.262Z,100.00
2022-11-03T01:38:48.968Z,100.00
2022-11-03T01:39:50.499Z,100.00
2022-11-03T01:40:52.433Z,100.00
2022-11-03T01:41:54.384Z,100.00
2022-11-03T01:42:55.931Z,100.00
2022-11-03T01:44:09.374Z,100.00
2022-11-03T01:45:11.268Z,100.00
2022-11-03T01:46:27.538Z,100.00
2022-11-03T01:47:34.777Z,100.00
2022-11-03T01:48:41.742Z,100.00
2022-11-03T01:50:07.527Z,100.00
2022-11-03T01:51:13.477Z,100.00
2022-11-03T01:52:28.142Z,100.00
2022-11-03T01:53:30.436Z,100.00
2022-11-03T01:54:34.114Z,100.00
2022-11-03T01:55:40.086Z,100.00
2022-11-03T01:56:47.494Z,100.00
2022-11-03T01:58:06.027Z,100.00
2022-11-03T01:59:08.431Z,100.00
2022-11-03T02:00:11.086Z,100.00
2022-11-03T02:01:13.325Z,100.00
2022-11-03T02:02:15.329Z,100.00
2022-11-03T02:03:18.396Z,100.00
2022-11-03T02:04:29.187Z,100.00
2022-11-03T02:05:30.960Z,100.00
2022-11-03T02:06:32.743Z,100.00
2022-11-03T02:07:43.948Z,100.00
2022-11-03T02:08:54.472Z,100.00
2022-11-03T02:09:56.202Z,100.00
2022-11-03T02:10:59.076Z,100.00
2022-11-03T02:12:08.137Z,100.00
2022-11-03T02:13:19.535Z,100.00
2022-11-03T02:14:23.138Z,100.00
2022-11-03T02:15:26.097Z,100.00
2022-11-03T02:16:32.201Z,100.00
2022-11-03T02:17:36.059Z,100.00
2022-11-03T02:18:39.632Z,100.00
2022-11-03T02:19:59.742Z,100.00
2022-11-03T02:21:26.359Z,100.00
2022-11-03T02:22:54.085Z,100.00
2022-11-03T02:24:20.198Z,100.00
2022-11-03T02:25:46.623Z,100.00
2022-11-03T02:26:50.738Z,100.00
2022-11-03T02:27:52.625Z,100.00
2022-11-03T02:28:55.594Z,100.00
2022-11-03T02:29:59.561Z,100.00
2022-11-03T02:31:17.090Z,100.00
2022-11-03T02:32:23.862Z,100.00
2022-11-03T02:33:52.983Z,100.00
2022-11-03T02:35:01.663Z,100.00
2022-11-03T02:36:17.503Z,100.00
2022-11-03T02:37:27.278Z,100.00
2022-11-03T02:38:32.715Z,100.00
2022-11-03T02:39:44.332Z,100.00
2022-11-03T02:40:50.939Z,100.00
2022-11-03T02:41:56.249Z,100.00
2022-11-03T02:42:59.885Z,100.00
2022-11-03T02:44:03.048Z,100.00
2022-11-03T02:45:11.968Z,100.00
2022-11-03T02:46:21.460Z,100.00
2022-11-03T02:47:27.101Z,100.00
2022-11-03T02:48:28.788Z,100.00
2022-11-03T02:49:30.849Z,100.00
2022-11-03T02:50:34.539Z,100.00
2022-11-03T02:51:36.455Z,100.00
2022-11-03T02:52:48.489Z,100.00
2022-11-03T02:54:05.525Z,100.00
2022-11-03T02:55:45.399Z,100.00
2022-11-03T02:56:53.207Z,100.00
2022-11-03T02:58:25.665Z,100.00
2022-11-03T02:59:34.567Z,100.00
2022-11-03T03:00:51.837Z,100.00
2022-11-03T03:02:08.414Z,100.00
2022-11-03T03:03:44.302Z,100.00
2022-11-03T03:05:02.972Z,100.00
2022-11-03T03:06:14.186Z,100.00
2022-11-03T03:07:22.295Z,100.00
2022-11-03T03:08:26.997Z,100.00
2022-11-03T03:09:35.160Z,100.00
2022-11-03T03:10:42.514Z,100.00
2022-11-03T03:11:48.013Z,100.00
2022-11-03T03:12:54.625Z,100.00
2022-11-03T03:13:56.196Z,100.00
2022-11-03T03:15:00.363Z,100.00
2022-11-03T03:16:25.057Z,100.00
2022-11-03T03:17:57.230Z,100.00
2022-11-03T03:19:16.418Z,100.00
2022-11-03T03:20:18.283Z,100.00
2022-11-03T03:21:27.160Z,100.00
2022-11-03T03:22:42.774Z,100.00
2022-11-03T03:23:54.901Z,100.00
2022-11-03T03:25:25.061Z,100.00
2022-11-03T03:26:27.400Z,100.00
2022-11-03T03:27:35.860Z,100.00
2022-11-03T03:28:48.132Z,100.00
2022-11-03T03:29:54.794Z,100.00
2022-11-03T03:31:00.121Z,100.00
2022-11-03T03:32:06.624Z,100.00
2022-11-03T03:33:11.476Z,100.00
2022-11-03T03:34:33.911Z,100.00
2022-11-03T03:35:41.273Z,100.00
2022-11-03T03:36:46.338Z,100.00
2022-11-03T03:37:52.377Z,100.00
2022-11-03T03:39:02.305Z,100.00
2022-11-03T03:40:11.209Z,100.00
2022-11-03T03:41:22.381Z,100.00
2022-11-03T03:42:29.506Z,100.00
2022-11-03T03:43:39.843Z,100.00
2022-11-03T03:44:44.101Z,100.00
2022-11-03T03:45:48.583Z,100.00
2022-11-03T03:46:59.257Z,100.00
2022-11-03T03:48:01.332Z,100.00
2022-11-03T03:49:03.402Z,100.00
2022-11-03T03:50:08.419Z,100.00
2022-11-03T03:51:12.594Z,100.00
2022-11-03T03:52:15.618Z,100.00
2022-11-03T03:53:19.570Z,100.00
2022-11-03T03:54:21.211Z,100.00
2022-11-03T03:55:30.635Z,100.00
2022-11-03T03:56:45.849Z,100.00
2022-11-03T03:57:49.034Z,100.00
2022-11-03T03:58:52.644Z,100.00
2022-11-03T03:59:55.283Z,100.00
2022-11-03T04:00:57.083Z,100.00
2022-11-03T04:02:00.005Z,100.00
2022-11-03T04:03:01.991Z,100.00
2022-11-03T04:04:03.723Z,100.00
2022-11-03T04:05:07.347Z,100.00
2022-11-03T04:06:09.721Z,100.00
2022-11-03T04:07:30.439Z,100.00
2022-11-03T04:08:32.296Z,100.00
2022-11-03T04:09:35.722Z,100.00
2022-11-03T04:10:37.491Z,100.00
2022-11-03T04:11:58.287Z,100.00
2022-11-03T04:13:18.608Z,100.00
2022-11-03T04:14:38.958Z,100.00
2022-11-03T04:15:53.128Z,100.00
2022-11-03T04:17:24.462Z,100.00
2022-11-03T04:18:46.048Z,100.00
2022-11-03T04:20:06.800Z,100.00
2022-11-03T04:21:31.515Z,100.00
2022-11-03T04:22:33.747Z,100.00
2022-11-03T04:23:35.563Z,100.00
2022-11-03T04:24:37.454Z,100.00
2022-11-03T04:25:39.133Z,100.00
2022-11-03T04:26:41.056Z,100.00
2022-11-03T04:27:42.650Z,100.00
2022-11-03T04:28:45.912Z,100.00
2022-11-03T04:29:47.618Z,100.00
2022-11-03T04:30:53.295Z,100.00
2022-11-03T04:31:58.007Z,100.00
2022-11-03T04:32:59.773Z,100.00
2022-11-03T04:34:04.595Z,100.00
2022-11-03T04:35:25.221Z,100.00
2022-11-03T04:36:27.432Z,100.00
2022-11-03T04:37:29.776Z,100.00
2022-11-03T04:38:31.958Z,100.00
2022-11-03T04:39:33.658Z,100.00
2022-11-03T04:40:35.602Z,100.00
2022-11-03T04:41:39.596Z,100.00
2022-11-03T04:42:41.713Z,100.00
2022-11-03T04:43:46.598Z,100.00
2022-11-03T04:44:50.743Z,100.00
2022-11-03T04:45:53.101Z,100.00
2022-11-03T04:46:54.788Z,100.00
2022-11-03T04:48:01.757Z,100.00
2022-11-03T04:49:05.728Z,100.00
2022-11-03T04:50:15.747Z,100.00
2022-11-03T04:51:20.002Z,100.00
2022-11-03T04:52:22.598Z,100.00
2022-11-03T04:53:28.358Z,100.00
2022-11-03T04:54:31.405Z,100.00
2022-11-03T04:55:33.289Z,100.00
2022-11-03T04:56:34.888Z,100.00
2022-11-03T04:57:37.103Z,100.00
2022-11-03T04:58:38.779Z,100.00
2022-11-03T04:59:43.610Z,100.00
2022-11-03T05:00:45.462Z,100.00
2022-11-03T05:01:47.299Z,100.00
2022-11-03T05:02:54.808Z,100.00
2022-11-03T05:03:58.341Z,100.00
2022-11-03T05:05:00.261Z,100.00
2022-11-03T05:06:20.086Z,100.00
2022-11-03T05:07:31.376Z,100.00
2022-11-03T05:08:33.547Z,100.00
2022-11-03T05:09:41.767Z,100.00
2022-11-03T05:10:45.676Z,100.00
2022-11-03T05:11:49.462Z,100.00
2022-11-03T05:12:54.616Z,100.00
2022-11-03T05:14:02.654Z,100.00
2022-11-03T05:15:13.875Z,100.00
2022-11-03T05:16:17.053Z,100.00
2022-11-03T05:17:24.274Z,100.00
2022-11-03T05:18:33.036Z,100.00
2022-11-03T05:19:38.668Z,100.00
2022-11-03T05:20:49.520Z,100.00
2022-11-03T05:21:54.452Z,100.00
2022-11-03T05:22:56.102Z,100.00
2022-11-03T05:24:03.512Z,100.00
2022-11-03T05:25:41.029Z,100.00
2022-11-03T05:26:43.368Z,100.00
2022-11-03T05:27:46.321Z,100.00
2022-11-03T05:28:53.487Z,100.00
2022-11-03T05:30:00.817Z,100.00
2022-11-03T05:31:21.467Z,100.00
2022-11-03T05:32:26.522Z,100.00
2022-11-03T05:33:37.709Z,100.00
2022-11-03T05:34:56.323Z,100.00
2022-11-03T05:36:03.068Z,100.00
2022-11-03T05:37:12.090Z,100.00
2022-11-03T05:38:16.823Z,100.00
2022-11-03T05:39:21.771Z,100.00
2022-11-03T05:40:26.905Z,100.00
2022-11-03T05:41:31.039Z,100.00
2022-11-03T05:42:39.905Z,100.00
2022-11-03T05:43:43.572Z,100.00
2022-11-03T05:44:45.795Z,100.00
2022-11-03T05:45:55.497Z,100.00
2022-11-03T05:46:58.436Z,100.00
2022-11-03T05:48:02.586Z,100.00
2022-11-03T05:49:07.094Z,100.00
2022-11-03T05:50:20.567Z,100.00
2022-11-03T05:51:25.566Z,100.00
2022-11-03T05:52:28.478Z,100.00
2022-11-03T05:53:39.021Z,100.00
2022-11-03T05:54:41.855Z,100.00
2022-11-03T05:55:44.109Z,100.00
2022-11-03T05:56:45.771Z,100.00
2022-11-03T05:57:47.375Z,100.00
2022-11-03T05:58:51.122Z,100.00
2022-11-03T05:59:53.939Z,100.00
2022-11-03T06:00:59.396Z,100.00
2022-11-03T06:02:01.708Z,100.00
2022-11-03T06:03:04.562Z,100.00
2022-11-03T06:04:27.014Z,100.00
2022-11-03T06:05:31.225Z,100.00
2022-11-03T06:06:38.671Z,100.00
2022-11-03T06:07:41.484Z,100.00
2022-11-03T06:08:46.098Z,100.00
2022-11-03T06:09:51.710Z,100.00
2022-11-03T06:10:55.551Z,100.00
2022-11-03T06:12:03.603Z,100.00
2022-11-03T06:13:13.974Z,100.00
2022-11-03T06:14:24.489Z,100.00
2022-11-03T06:15:37.029Z,100.00
2022-11-03T06:16:43.143Z,100.00
2022-11-03T06:17:45.009Z,100.00
2022-11-03T06:18:47.823Z,100.00
2022-11-03T06:19:52.520Z,100.00
2022-11-03T06:20:58.259Z,100.00
2022-11-03T06:22:14.438Z,100.00
2022-11-03T06:23:18.843Z,100.00
2022-11-03T06:24:26.061Z,100.00
2022-11-03T06:25:36.324Z,100.00
2022-11-03T06:26:40.164Z,100.00
2022-11-03T06:27:42.431Z,100.00
2022-11-03T06:28:45.305Z,100.00
2022-11-03T06:29:52.347Z,100.00
2022-11-03T06:30:57.724Z,100.00
2022-11-03T06:32:01.904Z,100.00
2022-11-03T06:33:35.748Z,100.00
2022-11-03T06:34:52.417Z,100.00
2022-11-03T06:36:12.656Z,100.00
2022-11-03T06:37:20.605Z,100.00
2022-11-03T06:38:26.746Z,100.00
2022-11-03T06:39:28.753Z,100.00
2022-11-03T06:40:39.717Z,100.00
2022-11-03T06:41:41.704Z,100.00
2022-11-03T06:42:43.645Z,100.00
2022-11-03T06:43:47.682Z,100.00
2022-11-03T06:44:52.567Z,100.00
2022-11-03T06:46:06.150Z,100.00
2022-11-03T06:47:21.452Z,100.00
2022-11-03T06:48:35.498Z,100.00
2022-11-03T06:49:38.055Z,100.00
2022-11-03T06:50:44.713Z,100.00
2022-11-03T06:51:46.914Z,100.00
2022-11-03T06:52:50.095Z,100.00
2022-11-03T06:53:54.249Z,100.00
2022-11-03T06:55:10.747Z,100.00
2022-11-03T06:56:20.932Z,100.00
2022-11-03T06:57:23.691Z,100.00
2022-11-03T06:58:37.859Z,100.00
2022-11-03T06:59:43.667Z,100.00
2022-11-03T07:00:51.738Z,100.00
2022-11-03T07:01:56.181Z,100.00
2022-11-03T07:02:58.686Z,100.00
2022-11-03T07:04:04.715Z,100.00
2022-11-03T07:05:22.686Z,100.00
2022-11-03T07:06:31.288Z,100.00
2022-11-03T07:07:33.126Z,100.00
2022-11-03T07:08:41.336Z,100.00
2022-11-03T07:09:43.938Z,100.00
2022-11-03T07:10:46.868Z,100.00
2022-11-03T07:11:52.286Z,100.00
2022-11-03T07:12:56.471Z,100.00
2022-11-03T07:14:04.082Z,100.00
2022-11-03T07:15:21.794Z,100.00
2022-11-03T07:16:31.412Z,100.00
2022-11-03T07:17:34.693Z,100.00
2022-11-03T07:18:42.754Z,100.00
2022-11-03T07:19:46.060Z,100.00
2022-11-03T07:20:48.775Z,100.00
2022-11-03T07:21:53.063Z,100.00
2022-11-03T07:22:57.622Z,100.00
2022-11-03T07:24:02.547Z,100.00
2022-11-03T07:25:12.730Z,100.00
2022-11-03T07:26:15.918Z,100.00
2022-11-03T07:27:17.745Z,100.00
2022-11-03T07:28:19.853Z,100.00
2022-11-03T07:29:27.311Z,100.00
2022-11-03T07:30:35.013Z,100.00
2022-11-03T07:31:36.758Z,100.00
2022-11-03T07:32:39.590Z,100.00
2022-11-03T07:33:42.010Z,100.00
2022-11-03T07:34:46.258Z,100.00
2022-11-03T07:37:16.077Z,100.00
2022-11-03T07:38:23.183Z,100.00
2022-11-03T07:39:29.888Z,100.00
2022-11-03T07:40:35.261Z,100.00
2022-11-03T07:41:38.846Z,100.00
2022-11-03T07:42:40.696Z,100.00
2022-11-03T07:43:49.510Z,100.00
2022-11-03T07:44:54.480Z,100.00
2022-11-03T07:46:01.700Z,100.00
2022-11-03T07:47:03.425Z,100.00
2022-11-03T07:48:45.560Z,100.00
2022-11-03T07:49:47.879Z,100.00
2022-11-03T07:50:55.394Z,100.00
2022-11-03T07:52:00.041Z,100.00
2022-11-03T07:53:01.915Z,100.00
2022-11-03T07:54:28.489Z,98.45
2022-11-03T07:55:31.574Z,97.50
2022-11-03T07:56:42.243Z,96.08
2022-11-03T07:57:44.861Z,95.46
2022-11-03T07:58:50.453Z,94.15
2022-11-03T07:59:57.178Z,94.43
2022-11-03T08:01:01.554Z,93.95
2022-11-03T08:02:23.720Z,93.50
2022-11-03T08:03:33.760Z,93.71
2022-11-03T08:04:36.279Z,94.80
2022-11-03T08:05:39.795Z,95.38
2022-11-03T08:06:42.912Z,94.98
2022-11-03T08:07:45.616Z,95.54
2022-11-03T08:08:47.492Z,95.28
2022-11-03T08:09:49.558Z,95.47
2022-11-03T08:10:52.275Z,95.71
2022-11-03T08:11:54.930Z,95.35
2022-11-03T08:12:56.872Z,95.53
2022-11-03T08:13:59.059Z,94.91
2022-11-03T08:15:03.630Z,93.68
2022-11-03T08:16:05.936Z,91.47
2022-11-03T08:17:07.726Z,90.44
2022-11-03T08:18:09.389Z,88.23
2022-11-03T08:19:11.049Z,86.52
2022-11-03T08:20:12.896Z,85.75
2022-11-03T08:21:15.861Z,81.11
2022-11-03T08:22:17.883Z,78.59
2022-11-03T08:23:25.814Z,79.90
2022-11-03T08:24:28.085Z,77.84
2022-11-03T08:25:31.298Z,77.64
2022-11-03T08:26:32.882Z,76.08
2022-11-03T08:27:41.603Z,74.31
2022-11-03T08:28:44.388Z,73.03
2022-11-03T08:29:47.869Z,71.62
2022-11-03T08:30:50.132Z,69.06
2022-11-03T08:31:54.671Z,67.69
2022-11-03T08:32:56.704Z,66.20
2022-11-03T08:33:58.415Z,66.11
2022-11-03T08:35:00.028Z,64.42
2022-11-03T08:36:04.642Z,64.28
2022-11-03T08:37:06.296Z,65.19
2022-11-03T08:38:09.828Z,64.55
2022-11-03T08:39:14.079Z,64.13
2022-11-03T08:40:15.887Z,64.22
2022-11-03T08:41:18.442Z,63.71
2022-11-03T08:42:21.306Z,63.36
2022-11-03T08:43:23.693Z,63.33
2022-11-03T08:44:26.442Z,63.89
2022-11-03T08:45:28.215Z,62.93
2022-11-03T08:46:30.071Z,63.30
2022-11-03T08:47:34.281Z,62.49
2022-11-03T08:48:36.103Z,62.60
2022-11-03T08:49:38.050Z,62.73
2022-11-03T08:50:40.909Z,61.50
2022-11-03T08:51:44.660Z,61.49
2022-11-03T08:52:49.901Z,62.83
2022-11-03T08:53:55.237Z,63.25
2022-11-03T08:54:58.728Z,63.38
2022-11-03T08:56:00.675Z,62.21
2022-11-03T08:57:02.323Z,59.63
2022-11-03T08:58:04.114Z,59.86
2022-11-03T08:59:06.198Z,61.50
2022-11-03T09:00:08.612Z,62.72
2022-11-03T09:01:10.240Z,63.17
2022-11-03T09:02:11.859Z,63.07
2022-11-03T09:03:15.908Z,62.68
2022-11-03T09:04:21.055Z,62.77
2022-11-03T09:05:23.026Z,62.94
2022-11-03T09:06:24.692Z,62.42
2022-11-03T09:10:21.229Z,60.31
2022-11-03T09:11:26.174Z,62.08
2022-11-03T09:12:27.909Z,65.73
2022-11-03T09:13:29.913Z,68.59
2022-11-03T09:14:32.234Z,69.63
2022-11-03T09:15:35.936Z,71.20
2022-11-03T09:16:38.975Z,72.05
2022-11-03T09:17:44.681Z,73.38
2022-11-03T09:18:47.562Z,72.62
2022-11-03T09:19:49.911Z,73.75
2022-11-03T09:20:51.730Z,75.53
2022-11-03T09:21:53.478Z,75.42
2022-11-03T09:22:56.694Z,75.56
2022-11-03T09:24:00.349Z,75.19
2022-11-03T09:25:02.586Z,75.03
2022-11-03T09:26:06.202Z,75.43
2022-11-03T09:27:10.476Z,76.71
2022-11-03T09:28:12.344Z,76.42
2022-11-03T09:29:14.031Z,76.29
2022-11-03T09:30:16.011Z,76.82
2022-11-03T09:31:20.760Z,77.71
2022-11-03T09:32:23.672Z,77.65
2022-11-03T09:33:26.197Z,77.53
2022-11-03T09:34:29.591Z,77.01
2022-11-03T09:35:32.715Z,76.79
2022-11-03T09:36:34.954Z,76.67
2022-11-03T09:37:38.682Z,76.63
2022-11-03T09:38:41.442Z,77.40
2022-11-03T09:39:43.713Z,77.67
2022-11-03T09:40:45.620Z,78.30
2022-11-03T09:41:58.634Z,78.54
2022-11-03T09:43:01.035Z,78.53
2022-11-03T09:44:04.844Z,77.48
2022-11-03T09:45:09.051Z,77.18
2022-11-03T09:46:11.365Z,76.67
2022-11-03T09:47:23.335Z,76.46
2022-11-03T09:48:25.678Z,76.08
2022-11-03T09:49:31.638Z,75.17
2022-11-03T09:50:34.243Z,75.75
2022-11-03T09:51:37.472Z,75.17
2022-11-03T09:52:39.791Z,74.95
2022-11-03T09:53:41.974Z,74.27
2022-11-03T09:54:43.942Z,73.91
2022-11-03T09:55:45.996Z,73.25
2022-11-03T09:56:47.909Z,72.93
2022-11-03T09:57:52.124Z,72.46
2022-11-03T09:58:54.879Z,72.39
2022-11-03T09:59:57.033Z,72.70
2022-11-03T10:01:00.823Z,72.69
2022-11-03T10:02:02.667Z,73.68
2022-11-03T10:03:05.445Z,72.82
2022-11-03T10:04:12.681Z,73.28
2022-11-03T10:05:19.468Z,72.91
2022-11-03T10:06:22.399Z,72.29
2022-11-03T10:07:26.811Z,72.73
2022-11-03T10:08:32.301Z,72.72
2022-11-03T10:09:34.923Z,73.59
2022-11-03T10:10:38.308Z,74.63
2022-11-03T10:11:40.946Z,74.47
2022-11-03T10:12:43.779Z,74.35
2022-11-03T10:13:49.858Z,73.69
2022-11-03T10:14:54.655Z,72.68
2022-11-03T10:15:57.695Z,73.14
2022-11-03T10:17:01.179Z,73.53
2022-11-03T10:18:03.455Z,73.59
2022-11-03T10:19:09.328Z,73.10
2022-11-03T10:20:17.259Z,73.23
2022-11-03T10:21:26.657Z,72.72
2022-11-03T10:22:28.254Z,72.66
2022-11-03T10:23:31.087Z,73.06
2022-11-03T10:24:34.186Z,73.94
2022-11-03T10:25:42.477Z,73.43
2022-11-03T10:26:49.107Z,73.89
2022-11-03T10:27:50.888Z,74.01
2022-11-03T10:29:05.665Z,72.98
2022-11-03T10:30:11.601Z,72.09
2022-11-03T10:31:23.435Z,72.13
2022-11-03T10:32:32.039Z,72.17
2022-11-03T10:33:36.120Z,70.57
2022-11-03T10:34:39.811Z,70.43
2022-11-03T10:35:42.346Z,70.11
2022-11-03T10:36:49.550Z,69.66
2022-11-03T10:37:53.678Z,70.12
2022-11-03T10:38:55.898Z,70.01
2022-11-03T10:39:58.715Z,69.92
2022-11-03T10:41:27.142Z,69.20
2022-11-03T10:42:35.271Z,68.95
2022-11-03T10:43:39.754Z,70.09
2022-11-03T10:44:42.715Z,70.80
2022-11-03T10:45:44.672Z,71.63
2022-11-03T10:47:05.920Z,72.77
2022-11-03T10:48:10.514Z,72.35
2022-11-03T10:49:12.253Z,71.53
2022-11-03T10:50:27.386Z,72.13
2022-11-03T10:51:35.227Z,71.77
2022-11-03T10:52:38.077Z,72.36
2022-11-03T10:53:42.795Z,72.58
2022-11-03T10:54:47.632Z,72.10
2022-11-03T10:55:49.267Z,71.49
2022-11-03T10:56:52.637Z,71.40
2022-11-03T10:57:56.207Z,72.33
2022-11-03T10:59:00.573Z,72.80
2022-11-03T11:00:04.849Z,71.65
2022-11-03T11:01:14.146Z,69.79
2022-11-03T11:02:31.612Z,70.92
2022-11-03T11:03:40.199Z,70.58
2022-11-03T11:04:42.673Z,71.60
2022-11-03T11:05:47.156Z,73.07
2022-11-03T11:06:49.477Z,71.69
2022-11-03T11:07:53.089Z,70.59
2022-11-03T11:09:03.921Z,70.78
2022-11-03T11:10:12.847Z,69.26
2022-11-03T11:11:17.281Z,69.08
2022-11-03T11:12:24.954Z,69.18
2022-11-03T11:13:28.636Z,67.80
2022-11-03T11:14:30.320Z,67.12
2022-11-03T11:15:39.703Z,67.21
2022-11-03T11:16:52.806Z,67.92
2022-11-03T11:17:56.413Z,66.85
2022-11-03T11:18:58.039Z,66.40
2022-11-03T11:20:19.599Z,65.48
2022-11-03T11:21:21.490Z,66.40
2022-11-03T11:22:23.795Z,66.33
2022-11-03T11:23:32.365Z,66.28
2022-11-03T11:24:42.589Z,69.02
2022-11-03T11:26:25.721Z,70.80
2022-11-03T11:27:36.230Z,70.75
2022-11-03T11:28:43.822Z,72.03
2022-11-03T11:29:45.630Z,72.28
2022-11-03T11:30:57.627Z,72.04
2022-11-03T11:32:00.696Z,72.25
2022-11-03T11:33:22.306Z,73.59
2022-11-03T11:34:36.410Z,74.69
2022-11-03T11:35:38.193Z,74.65
2022-11-03T11:36:43.199Z,74.58
2022-11-03T11:37:45.097Z,73.86
2022-11-03T11:38:53.840Z,74.34
2022-11-03T11:39:55.638Z,74.88
2022-11-03T11:40:57.730Z,76.23
2022-11-03T11:42:17.605Z,76.05
2022-11-03T11:43:19.423Z,75.87
2022-11-03T11:44:42.558Z,75.48
2022-11-03T11:46:22.217Z,74.53
2022-11-03T11:47:25.929Z,74.53
2022-11-03T11:48:28.246Z,75.29
2022-11-03T11:49:30.203Z,75.37
2022-11-03T11:50:32.609Z,75.26
2022-11-03T11:51:35.564Z,75.80
2022-11-03T11:52:42.009Z,76.12
2022-11-03T11:53:45.329Z,76.20
2022-11-03T11:54:48.101Z,76.52
2022-11-03T11:56:03.197Z,77.25
2022-11-03T11:57:19.649Z,78.20
2022-11-03T11:58:51.562Z,81.31
2022-11-03T11:59:54.489Z,79.97
2022-11-03T12:01:13.558Z,79.50
2022-11-03T12:02:29.388Z,81.24
2022-11-03T12:03:52.564Z,81.58
2022-11-03T12:05:03.979Z,80.35
2022-11-03T12:06:06.653Z,79.77
2022-11-03T12:07:20.118Z,81.02
2022-11-03T12:08:29.676Z,82.23
2022-11-03T12:09:31.318Z,82.89
2022-11-03T12:10:33.017Z,82.04
2022-11-03T12:11:47.670Z,81.33
2022-11-03T12:12:50.715Z,81.04
2022-11-03T12:13:53.107Z,80.58
2022-11-03T12:14:54.749Z,80.16
2022-11-03T12:15:57.469Z,80.34
2022-11-03T12:17:19.723Z,79.64
2022-11-03T12:18:39.905Z,80.06
2022-11-03T12:19:54.536Z,79.83
2022-11-03T12:21:00.311Z,78.95
2022-11-03T12:22:04.666Z,79.15
2022-11-03T12:23:07.426Z,79.03
2022-11-03T12:24:32.274Z,79.05
2022-11-03T12:25:38.407Z,78.67
2022-11-03T12:26:42.762Z,77.97
2022-11-03T12:27:44.507Z,78.49
2022-11-03T12:28:46.608Z,78.19
2022-11-03T12:29:48.731Z,77.60
2022-11-03T12:30:52.805Z,77.79
2022-11-03T12:31:54.638Z,76.98
2022-11-03T12:32:58.121Z,77.17
2022-11-03T12:33:59.857Z,78.50
2022-11-03T12:35:06.645Z,78.67
2022-11-03T12:36:09.411Z,79.07
2022-11-03T12:37:12.663Z,79.74
2022-11-03T12:38:16.128Z,78.16
2022-11-03T12:39:17.668Z,78.39
2022-11-03T12:40:20.337Z,78.98
2022-11-03T12:41:21.955Z,80.35
2022-11-03T12:42:25.424Z,80.69
2022-11-03T12:43:29.194Z,80.37
2022-11-03T12:44:30.880Z,80.02
2022-11-03T12:45:32.634Z,79.94
2022-11-03T12:46:37.035Z,79.81
2022-11-03T12:47:39.155Z,79.85
2022-11-03T12:48:44.780Z,80.41
2022-11-03T12:49:46.443Z,80.40
2022-11-03T12:50:49.437Z,79.99
2022-11-03T12:51:52.161Z,79.91
2022-11-03T12:52:53.819Z,79.68
2022-11-03T12:53:55.522Z,79.62
2022-11-03T12:54:58.947Z,79.45
2022-11-03T12:56:00.823Z,79.70
2022-11-03T12:57:02.819Z,80.10
2022-11-03T12:58:06.402Z,81.04
2022-11-03T12:59:10.036Z,81.99
2022-11-03T13:00:12.938Z,82.52
2022-11-03T13:01:14.759Z,82.52
2022-11-03T13:02:17.231Z,83.28
2022-11-03T13:03:19.211Z,83.11
2022-11-03T13:04:21.256Z,83.63
2022-11-03T13:05:25.306Z,84.70
2022-11-03T13:06:29.561Z,84.93
2022-11-03T13:07:34.771Z,85.00
2022-11-03T13:08:37.529Z,84.62
2022-11-03T13:09:40.386Z,84.55
2022-11-03T13:10:43.399Z,84.53
2022-11-03T13:12:04.369Z,84.25
2022-11-03T13:13:08.986Z,83.99
2022-11-03T13:14:11.021Z,84.86
2022-11-03T13:15:13.654Z,84.58
2022-11-03T13:16:16.509Z,85.47
2022-11-03T13:17:18.183Z,85.45
2022-11-03T13:18:21.588Z,85.72
2022-11-03T13:19:23.596Z,85.48
2022-11-03T13:20:25.528Z,85.54
2022-11-03T13:21:27.415Z,84.94
2022-11-03T13:22:30.220Z,85.37
2022-11-03T13:23:32.459Z,86.33
2022-11-03T13:24:35.829Z,87.32
2022-11-03T13:25:38.025Z,87.19
2022-11-03T13:26:40.101Z,87.32
2022-11-03T13:27:42.256Z,87.07
2022-11-03T13:28:44.158Z,87.21
2022-11-03T13:29:46.289Z,87.62
2022-11-03T13:30:49.266Z,88.21
2022-11-03T13:31:50.956Z,89.17
2022-11-03T13:32:53.649Z,89.69
2022-11-03T13:33:58.912Z,89.53
2022-11-03T13:35:01.936Z,89.19
2022-11-03T13:36:03.916Z,88.53
2022-11-03T13:37:05.843Z,87.92
2022-11-03T13:38:07.547Z,88.26
2022-11-03T13:39:10.007Z,87.71
2022-11-03T13:40:35.682Z,88.25
2022-11-03T13:41:38.153Z,88.78
2022-11-03T13:42:39.951Z,89.52
2022-11-03T13:43:41.748Z,89.69
2022-11-03T13:44:43.581Z,89.47
2022-11-03T13:45:46.153Z,89.16
2022-11-03T13:46:48.590Z,89.25
2022-11-03T13:48:29.059Z,89.03
2022-11-03T13:50:34.866Z,89.55
2022-11-03T13:51:37.665Z,89.57
2022-11-03T13:52:39.586Z,89.56
2022-11-03T13:56:30.137Z,89.18
2022-11-03T14:00:18.345Z,90.13
2022-11-03T14:01:20.916Z,90.14
2022-11-03T14:05:11.276Z,89.68
2022-11-03T14:06:13.744Z,90.24
2022-11-03T14:07:17.192Z,90.82
2022-11-03T14:08:21.465Z,91.48
2022-11-03T14:09:23.735Z,92.57
2022-11-03T14:10:25.470Z,92.50
2022-11-03T14:11:46.006Z,92.52